sensor_id;sensor_type;location;lat;lon;timestamp;temperature;humidity
3067;DHT22;1544;48.834;9.194;2022-12-18T00:00:19;-5.70;35.80
3067;DHT22;1544;48.834;9.194;2022-12-18T00:02:55;-5.70;36.00
3067;DHT22;1544;48.834;9.194;2022-12-18T00:05:30;-5.70;36.10
3067;DHT22;1544;48.834;9.194;2022-12-18T00:08:05;-5.70;36.30
3067;DHT22;1544;48.834;9.194;2022-12-18T00:10:43;-5.60;36.40
3067;DHT22;1544;48.834;9.194;2022-12-18T00:13:19;-5.70;36.30
3067;DHT22;1544;48.834;9.194;2022-12-18T00:15:53;-5.70;36.00
3067;DHT22;1544;48.834;9.194;2022-12-18T00:18:30;-5.70;35.90
3067;DHT22;1544;48.834;9.194;2022-12-18T00:21:08;-5.70;35.60
3067;DHT22;1544;48.834;9.194;2022-12-18T00:23:44;-5.70;35.50
3067;DHT22;1544;48.834;9.194;2022-12-18T00:26:23;-5.70;35.30
3067;DHT22;1544;48.834;9.194;2022-12-18T00:29:12;-5.70;35.30
3067;DHT22;1544;48.834;9.194;2022-12-18T00:31:50;-5.70;35.20
3067;DHT22;1544;48.834;9.194;2022-12-18T00:34:25;-5.70;35.10
3067;DHT22;1544;48.834;9.194;2022-12-18T00:37:00;-5.70;35.10
3067;DHT22;1544;48.834;9.194;2022-12-18T00:39:35;-5.70;35.10
3067;DHT22;1544;48.834;9.194;2022-12-18T00:42:10;-5.70;35.10
3067;DHT22;1544;48.834;9.194;2022-12-18T00:45:04;-5.70;35.10
3067;DHT22;1544;48.834;9.194;2022-12-18T00:47:46;-5.80;34.90
3067;DHT22;1544;48.834;9.194;2022-12-18T00:50:22;-5.80;34.80
3067;DHT22;1544;48.834;9.194;2022-12-18T00:52:58;-5.80;34.80
3067;DHT22;1544;48.834;9.194;2022-12-18T00:55:33;-5.80;34.70
3067;DHT22;1544;48.834;9.194;2022-12-18T00:58:08;-5.80;34.60
3067;DHT22;1544;48.834;9.194;2022-12-18T01:00:44;-5.80;34.60
3067;DHT22;1544;48.834;9.194;2022-12-18T01:03:19;-5.80;34.70
3067;DHT22;1544;48.834;9.194;2022-12-18T01:05:54;-5.80;34.70
3067;DHT22;1544;48.834;9.194;2022-12-18T01:08:30;-5.90;34.60
3067;DHT22;1544;48.834;9.194;2022-12-18T01:11:10;-5.90;34.70
3067;DHT22;1544;48.834;9.194;2022-12-18T01:13:48;-5.90;34.90
3067;DHT22;1544;48.834;9.194;2022-12-18T01:16:23;-5.90;35.10
3067;DHT22;1544;48.834;9.194;2022-12-18T01:18:59;-5.90;35.10
3067;DHT22;1544;48.834;9.194;2022-12-18T01:21:35;-5.90;35.10
3067;DHT22;1544;48.834;9.194;2022-12-18T01:24:12;-5.90;35.10
3067;DHT22;1544;48.834;9.194;2022-12-18T01:26:47;-5.90;35.20
3067;DHT22;1544;48.834;9.194;2022-12-18T01:29:22;-5.80;35.20
3067;DHT22;1544;48.834;9.194;2022-12-18T01:31:56;-5.90;35.10
3067;DHT22;1544;48.834;9.194;2022-12-18T01:34:32;-5.70;35.20
3067;DHT22;1544;48.834;9.194;2022-12-18T01:37:06;-5.90;35.10
3067;DHT22;1544;48.834;9.194;2022-12-18T01:39:42;-5.90;35.00
3067;DHT22;1544;48.834;9.194;2022-12-18T01:42:17;-5.90;34.80
3067;DHT22;1544;48.834;9.194;2022-12-18T01:44:59;-5.90;34.90
3067;DHT22;1544;48.834;9.194;2022-12-18T01:47:47;-5.90;34.90
3067;DHT22;1544;48.834;9.194;2022-12-18T01:50:36;-5.90;34.80
3067;DHT22;1544;48.834;9.194;2022-12-18T01:53:16;-6.00;35.10
3067;DHT22;1544;48.834;9.194;2022-12-18T01:55:55;-5.90;35.20
3067;DHT22;1544;48.834;9.194;2022-12-18T02:01:30;-5.90;35.40
3067;DHT22;1544;48.834;9.194;2022-12-18T02:04:22;-5.90;35.50
3067;DHT22;1544;48.834;9.194;2022-12-18T02:07:33;-5.90;35.50
3067;DHT22;1544;48.834;9.194;2022-12-18T02:10:27;-5.80;35.40
3067;DHT22;1544;48.834;9.194;2022-12-18T02:13:42;-5.90;35.50
3067;DHT22;1544;48.834;9.194;2022-12-18T02:28:16;-5.70;36.20
3067;DHT22;1544;48.834;9.194;2022-12-18T02:30:56;-5.70;36.10
3067;DHT22;1544;48.834;9.194;2022-12-18T02:33:35;-5.70;36.10
3067;DHT22;1544;48.834;9.194;2022-12-18T02:36:13;-5.60;36.20
3067;DHT22;1544;48.834;9.194;2022-12-18T02:38:52;-5.60;36.10
3067;DHT22;1544;48.834;9.194;2022-12-18T02:41:29;-5.60;36.10
3067;DHT22;1544;48.834;9.194;2022-12-18T02:44:11;-5.50;36.10
3067;DHT22;1544;48.834;9.194;2022-12-18T02:46:53;-5.50;35.90
3067;DHT22;1544;48.834;9.194;2022-12-18T02:49:50;-5.50;35.80
3067;DHT22;1544;48.834;9.194;2022-12-18T02:52:52;-5.50;35.80
3067;DHT22;1544;48.834;9.194;2022-12-18T02:58:44;-5.50;35.80
3067;DHT22;1544;48.834;9.194;2022-12-18T03:02:01;-5.50;35.80
3067;DHT22;1544;48.834;9.194;2022-12-18T03:05:16;-5.50;36.00
3067;DHT22;1544;48.834;9.194;2022-12-18T03:08:02;-5.50;36.10
3067;DHT22;1544;48.834;9.194;2022-12-18T03:10:54;-5.50;36.10
3067;DHT22;1544;48.834;9.194;2022-12-18T03:13:51;-5.50;36.20
3067;DHT22;1544;48.834;9.194;2022-12-18T03:16:31;-5.50;36.40
3067;DHT22;1544;48.834;9.194;2022-12-18T03:19:13;-5.40;36.50
3067;DHT22;1544;48.834;9.194;2022-12-18T03:22:00;-5.50;36.40
3067;DHT22;1544;48.834;9.194;2022-12-18T03:24:45;-5.50;36.40
3067;DHT22;1544;48.834;9.194;2022-12-18T03:27:24;-5.40;36.40
3067;DHT22;1544;48.834;9.194;2022-12-18T03:30:08;-5.40;36.20
3067;DHT22;1544;48.834;9.194;2022-12-18T03:32:58;-5.40;36.10
3067;DHT22;1544;48.834;9.194;2022-12-18T03:35:41;-5.40;36.00
3067;DHT22;1544;48.834;9.194;2022-12-18T03:38:19;-5.50;36.30
3067;DHT22;1544;48.834;9.194;2022-12-18T03:44:40;-5.50;36.40
3067;DHT22;1544;48.834;9.194;2022-12-18T03:47:42;-5.60;36.50
3067;DHT22;1544;48.834;9.194;2022-12-18T03:50:57;-5.60;36.50
3067;DHT22;1544;48.834;9.194;2022-12-18T03:56:37;-5.70;36.60
3067;DHT22;1544;48.834;9.194;2022-12-18T03:59:18;-5.70;36.80
3067;DHT22;1544;48.834;9.194;2022-12-18T04:01:54;-5.60;36.80
3067;DHT22;1544;48.834;9.194;2022-12-18T04:04:35;-5.70;36.80
3067;DHT22;1544;48.834;9.194;2022-12-18T04:07:13;-5.70;36.80
3067;DHT22;1544;48.834;9.194;2022-12-18T04:09:54;-5.70;36.80
3067;DHT22;1544;48.834;9.194;2022-12-18T04:12:31;-5.70;36.80
3067;DHT22;1544;48.834;9.194;2022-12-18T04:15:07;-5.70;36.60
3067;DHT22;1544;48.834;9.194;2022-12-18T04:17:50;-5.70;36.50
3067;DHT22;1544;48.834;9.194;2022-12-18T04:20:28;-5.70;36.40
3067;DHT22;1544;48.834;9.194;2022-12-18T04:23:03;-5.70;36.10
3067;DHT22;1544;48.834;9.194;2022-12-18T04:25:39;-5.70;35.40
3067;DHT22;1544;48.834;9.194;2022-12-18T04:28:22;-5.70;35.70
3067;DHT22;1544;48.834;9.194;2022-12-18T04:30:57;-5.60;35.60
3067;DHT22;1544;48.834;9.194;2022-12-18T04:33:32;-5.70;35.30
3067;DHT22;1544;48.834;9.194;2022-12-18T04:36:07;-5.70;35.20
3067;DHT22;1544;48.834;9.194;2022-12-18T04:38:42;-5.70;35.00
3067;DHT22;1544;48.834;9.194;2022-12-18T04:41:21;-5.70;34.80
3067;DHT22;1544;48.834;9.194;2022-12-18T04:43:56;-5.80;34.60
3067;DHT22;1544;48.834;9.194;2022-12-18T04:46:31;-5.80;34.60
3067;DHT22;1544;48.834;9.194;2022-12-18T04:49:06;-5.70;34.70
3067;DHT22;1544;48.834;9.194;2022-12-18T04:51:41;-5.80;34.60
3067;DHT22;1544;48.834;9.194;2022-12-18T04:54:16;-5.80;34.40
3067;DHT22;1544;48.834;9.194;2022-12-18T04:56:51;-5.80;34.80
3067;DHT22;1544;48.834;9.194;2022-12-18T04:59:27;-5.90;34.70
3067;DHT22;1544;48.834;9.194;2022-12-18T05:02:02;-5.90;34.90
3067;DHT22;1544;48.834;9.194;2022-12-18T05:04:37;-6.00;35.00
3067;DHT22;1544;48.834;9.194;2022-12-18T05:07:12;-6.00;35.10
3067;DHT22;1544;48.834;9.194;2022-12-18T05:09:47;-6.10;35.20
3067;DHT22;1544;48.834;9.194;2022-12-18T05:12:21;-6.00;35.30
3067;DHT22;1544;48.834;9.194;2022-12-18T05:14:58;-6.10;35.20
3067;DHT22;1544;48.834;9.194;2022-12-18T05:17:32;-5.90;35.20
3067;DHT22;1544;48.834;9.194;2022-12-18T05:20:08;-6.00;35.00
3067;DHT22;1544;48.834;9.194;2022-12-18T05:22:43;-6.00;34.90
3067;DHT22;1544;48.834;9.194;2022-12-18T05:25:18;-5.90;34.80
3067;DHT22;1544;48.834;9.194;2022-12-18T05:27:54;-6.00;34.70
3067;DHT22;1544;48.834;9.194;2022-12-18T05:30:29;-6.00;34.50
3067;DHT22;1544;48.834;9.194;2022-12-18T05:33:04;-5.90;34.40
3067;DHT22;1544;48.834;9.194;2022-12-18T05:35:39;-6.00;34.10
3067;DHT22;1544;48.834;9.194;2022-12-18T05:38:13;-6.00;34.10
3067;DHT22;1544;48.834;9.194;2022-12-18T05:40:49;-6.10;33.90
3067;DHT22;1544;48.834;9.194;2022-12-18T05:43:26;-6.10;33.70
3067;DHT22;1544;48.834;9.194;2022-12-18T05:46:06;-4.50;35.00
3067;DHT22;1544;48.834;9.194;2022-12-18T05:48:43;-6.20;33.70
3067;DHT22;1544;48.834;9.194;2022-12-18T05:51:20;-6.20;33.70
3067;DHT22;1544;48.834;9.194;2022-12-18T05:53:56;-6.20;33.70
3067;DHT22;1544;48.834;9.194;2022-12-18T05:56:31;-6.20;33.60
3067;DHT22;1544;48.834;9.194;2022-12-18T05:59:06;-6.30;33.30
3067;DHT22;1544;48.834;9.194;2022-12-18T06:01:41;-6.30;33.20
3067;DHT22;1544;48.834;9.194;2022-12-18T06:04:17;-6.40;33.20
3067;DHT22;1544;48.834;9.194;2022-12-18T06:06:52;-6.40;33.20
3067;DHT22;1544;48.834;9.194;2022-12-18T06:09:29;-6.40;33.10
3067;DHT22;1544;48.834;9.194;2022-12-18T06:12:04;-6.40;33.00
3067;DHT22;1544;48.834;9.194;2022-12-18T06:14:39;-6.40;33.00
3067;DHT22;1544;48.834;9.194;2022-12-18T06:17:14;-6.40;32.80
3067;DHT22;1544;48.834;9.194;2022-12-18T06:19:49;-6.40;32.70
3067;DHT22;1544;48.834;9.194;2022-12-18T06:22:24;-6.40;32.50
3067;DHT22;1544;48.834;9.194;2022-12-18T06:24:59;-6.40;32.50
3067;DHT22;1544;48.834;9.194;2022-12-18T06:27:34;-6.50;32.30
3067;DHT22;1544;48.834;9.194;2022-12-18T06:30:10;-6.50;32.20
3067;DHT22;1544;48.834;9.194;2022-12-18T06:32:48;-6.50;32.10
3067;DHT22;1544;48.834;9.194;2022-12-18T06:35:31;-6.50;32.10
3067;DHT22;1544;48.834;9.194;2022-12-18T06:38:07;-6.60;32.10
3067;DHT22;1544;48.834;9.194;2022-12-18T06:40:42;-6.60;32.00
3067;DHT22;1544;48.834;9.194;2022-12-18T06:43:17;-6.60;31.90
3067;DHT22;1544;48.834;9.194;2022-12-18T06:45:58;-6.70;31.90
3067;DHT22;1544;48.834;9.194;2022-12-18T06:48:34;-6.70;32.00
3067;DHT22;1544;48.834;9.194;2022-12-18T06:51:10;-6.70;32.00
3067;DHT22;1544;48.834;9.194;2022-12-18T06:53:45;-6.70;32.00
3067;DHT22;1544;48.834;9.194;2022-12-18T06:56:21;-6.80;31.90
3067;DHT22;1544;48.834;9.194;2022-12-18T06:58:56;-6.80;31.90
3067;DHT22;1544;48.834;9.194;2022-12-18T07:01:30;-6.80;32.00
3067;DHT22;1544;48.834;9.194;2022-12-18T07:04:06;-6.80;32.00
3067;DHT22;1544;48.834;9.194;2022-12-18T07:06:41;-6.80;32.00
3067;DHT22;1544;48.834;9.194;2022-12-18T07:09:16;-6.80;31.90
3067;DHT22;1544;48.834;9.194;2022-12-18T07:11:50;-6.60;32.00
3067;DHT22;1544;48.834;9.194;2022-12-18T07:14:25;-6.80;31.80
3067;DHT22;1544;48.834;9.194;2022-12-18T07:17:00;-6.80;31.70
3067;DHT22;1544;48.834;9.194;2022-12-18T07:19:35;-6.80;31.70
3067;DHT22;1544;48.834;9.194;2022-12-18T07:22:10;-6.80;31.80
3067;DHT22;1544;48.834;9.194;2022-12-18T07:24:45;-6.80;31.80
3067;DHT22;1544;48.834;9.194;2022-12-18T07:27:20;-6.70;31.70
3067;DHT22;1544;48.834;9.194;2022-12-18T07:29:56;-6.70;31.60
3067;DHT22;1544;48.834;9.194;2022-12-18T07:32:31;-6.60;31.50
3067;DHT22;1544;48.834;9.194;2022-12-18T07:35:06;-6.60;31.40
3067;DHT22;1544;48.834;9.194;2022-12-18T07:37:41;-6.70;31.30
3067;DHT22;1544;48.834;9.194;2022-12-18T07:40:16;-6.60;31.10
3067;DHT22;1544;48.834;9.194;2022-12-18T07:42:51;-6.60;31.20
3067;DHT22;1544;48.834;9.194;2022-12-18T07:45:26;-6.60;31.10
3067;DHT22;1544;48.834;9.194;2022-12-18T07:48:01;-6.60;31.10
3067;DHT22;1544;48.834;9.194;2022-12-18T07:50:37;-6.60;31.10
3067;DHT22;1544;48.834;9.194;2022-12-18T07:53:12;-6.60;31.10
3067;DHT22;1544;48.834;9.194;2022-12-18T07:55:47;-6.60;31.00
3067;DHT22;1544;48.834;9.194;2022-12-18T07:58:42;-6.50;31.20
3067;DHT22;1544;48.834;9.194;2022-12-18T08:01:19;-6.50;31.20
3067;DHT22;1544;48.834;9.194;2022-12-18T08:03:55;-6.50;31.20
3067;DHT22;1544;48.834;9.194;2022-12-18T08:06:30;-6.50;31.30
3067;DHT22;1544;48.834;9.194;2022-12-18T08:09:05;-6.50;31.40
3067;DHT22;1544;48.834;9.194;2022-12-18T08:11:40;-6.40;31.60
3067;DHT22;1544;48.834;9.194;2022-12-18T08:14:15;-6.40;31.60
3067;DHT22;1544;48.834;9.194;2022-12-18T08:16:50;-6.40;31.50
3067;DHT22;1544;48.834;9.194;2022-12-18T08:19:25;-6.40;31.70
3067;DHT22;1544;48.834;9.194;2022-12-18T08:22:00;-6.40;31.80
3067;DHT22;1544;48.834;9.194;2022-12-18T08:24:35;-6.40;31.80
3067;DHT22;1544;48.834;9.194;2022-12-18T08:27:10;-6.30;31.80
3067;DHT22;1544;48.834;9.194;2022-12-18T08:30:03;-6.20;31.90
3067;DHT22;1544;48.834;9.194;2022-12-18T08:32:40;-6.20;31.80
3067;DHT22;1544;48.834;9.194;2022-12-18T08:35:15;-6.10;31.50
3067;DHT22;1544;48.834;9.194;2022-12-18T08:37:52;-6.10;31.90
3067;DHT22;1544;48.834;9.194;2022-12-18T08:40:27;-6.10;31.90
3067;DHT22;1544;48.834;9.194;2022-12-18T08:43:02;-6.00;31.90
3067;DHT22;1544;48.834;9.194;2022-12-18T08:45:55;-6.00;32.00
3067;DHT22;1544;48.834;9.194;2022-12-18T08:48:31;-6.00;32.10
3067;DHT22;1544;48.834;9.194;2022-12-18T08:51:06;-5.90;32.10
3067;DHT22;1544;48.834;9.194;2022-12-18T08:53:42;-5.80;32.20
3067;DHT22;1544;48.834;9.194;2022-12-18T08:56:17;-5.80;32.30
3067;DHT22;1544;48.834;9.194;2022-12-18T08:58:53;-5.80;32.40
3067;DHT22;1544;48.834;9.194;2022-12-18T09:01:29;-5.80;32.50
3067;DHT22;1544;48.834;9.194;2022-12-18T09:04:05;-5.80;32.50
3067;DHT22;1544;48.834;9.194;2022-12-18T09:06:41;-5.70;32.80
3067;DHT22;1544;48.834;9.194;2022-12-18T09:09:16;-5.60;32.90
3067;DHT22;1544;48.834;9.194;2022-12-18T09:11:51;-5.60;32.90
3067;DHT22;1544;48.834;9.194;2022-12-18T09:14:26;-5.50;32.90
3067;DHT22;1544;48.834;9.194;2022-12-18T09:17:01;-5.50;33.00
3067;DHT22;1544;48.834;9.194;2022-12-18T09:19:36;-5.40;33.20
3067;DHT22;1544;48.834;9.194;2022-12-18T09:22:11;-5.40;33.40
3067;DHT22;1544;48.834;9.194;2022-12-18T09:24:46;-5.30;33.60
3067;DHT22;1544;48.834;9.194;2022-12-18T09:27:23;-5.30;33.70
3067;DHT22;1544;48.834;9.194;2022-12-18T09:29:58;-5.20;33.70
3067;DHT22;1544;48.834;9.194;2022-12-18T09:32:33;-5.10;33.80
3067;DHT22;1544;48.834;9.194;2022-12-18T09:35:08;-5.00;33.80
3067;DHT22;1544;48.834;9.194;2022-12-18T09:37:43;-4.90;33.70
3067;DHT22;1544;48.834;9.194;2022-12-18T09:40:21;-4.90;33.70
3067;DHT22;1544;48.834;9.194;2022-12-18T09:43:02;-4.80;33.70
3067;DHT22;1544;48.834;9.194;2022-12-18T09:45:47;-4.70;33.80
3067;DHT22;1544;48.834;9.194;2022-12-18T09:48:46;-4.70;33.70
3067;DHT22;1544;48.834;9.194;2022-12-18T09:51:35;-3.70;34.20
3067;DHT22;1544;48.834;9.194;2022-12-18T09:54:24;-4.50;33.70
3067;DHT22;1544;48.834;9.194;2022-12-18T09:57:01;-4.40;33.70
3067;DHT22;1544;48.834;9.194;2022-12-18T09:59:38;-4.40;33.60
3067;DHT22;1544;48.834;9.194;2022-12-18T10:05:09;-4.30;33.70
3067;DHT22;1544;48.834;9.194;2022-12-18T10:07:59;-4.20;33.80
3067;DHT22;1544;48.834;9.194;2022-12-18T10:11:48;-4.10;34.00
3067;DHT22;1544;48.834;9.194;2022-12-18T10:17:39;-3.80;34.20
3067;DHT22;1544;48.834;9.194;2022-12-18T10:26:34;-3.40;34.30
3067;DHT22;1544;48.834;9.194;2022-12-18T10:29:14;-3.30;34.20
3067;DHT22;1544;48.834;9.194;2022-12-18T10:31:50;-3.10;34.40
3067;DHT22;1544;48.834;9.194;2022-12-18T10:34:27;-3.00;34.50
3067;DHT22;1544;48.834;9.194;2022-12-18T10:37:06;-2.80;34.40
3067;DHT22;1544;48.834;9.194;2022-12-18T10:40:19;-2.60;34.50
3067;DHT22;1544;48.834;9.194;2022-12-18T10:43:12;-2.40;34.60
3067;DHT22;1544;48.834;9.194;2022-12-18T10:48:52;-2.00;34.10
3067;DHT22;1544;48.834;9.194;2022-12-18T10:51:31;-1.80;33.80
3067;DHT22;1544;48.834;9.194;2022-12-18T10:54:17;-1.60;33.80
3067;DHT22;1544;48.834;9.194;2022-12-18T10:57:15;-1.40;33.90
3067;DHT22;1544;48.834;9.194;2022-12-18T10:59:53;-1.20;33.90
3067;DHT22;1544;48.834;9.194;2022-12-18T11:02:37;-0.90;33.90
3067;DHT22;1544;48.834;9.194;2022-12-18T11:05:32;-0.70;33.50
3067;DHT22;1544;48.834;9.194;2022-12-18T11:08:20;-0.50;33.20
3067;DHT22;1544;48.834;9.194;2022-12-18T11:10:58;-0.20;33.10
3067;DHT22;1544;48.834;9.194;2022-12-18T11:13:33;0.00;32.80
3067;DHT22;1544;48.834;9.194;2022-12-18T11:16:20;0.30;32.60
3067;DHT22;1544;48.834;9.194;2022-12-18T11:19:45;0.50;32.10
3067;DHT22;1544;48.834;9.194;2022-12-18T11:21:56;0.70;31.90
3067;DHT22;1544;48.834;9.194;2022-12-18T11:24:34;2.40;32.70
3067;DHT22;1544;48.834;9.194;2022-12-18T11:27:18;1.20;31.70
3067;DHT22;1544;48.834;9.194;2022-12-18T11:30:08;1.40;31.30
3067;DHT22;1544;48.834;9.194;2022-12-18T11:32:54;1.70;31.10
3067;DHT22;1544;48.834;9.194;2022-12-18T11:35:35;1.90;31.00
3067;DHT22;1544;48.834;9.194;2022-12-18T11:38:29;2.20;31.10
3067;DHT22;1544;48.834;9.194;2022-12-18T11:41:25;2.40;30.60
3067;DHT22;1544;48.834;9.194;2022-12-18T11:44:35;2.60;30.60
3067;DHT22;1544;48.834;9.194;2022-12-18T11:50:46;3.10;31.10
3067;DHT22;1544;48.834;9.194;2022-12-18T11:53:26;3.20;30.00
3067;DHT22;1544;48.834;9.194;2022-12-18T11:56:11;3.30;30.00
3067;DHT22;1544;48.834;9.194;2022-12-18T11:59:30;3.40;30.10
3067;DHT22;1544;48.834;9.194;2022-12-18T12:05:18;3.60;30.20
3067;DHT22;1544;48.834;9.194;2022-12-18T12:08:10;3.60;29.90
3067;DHT22;1544;48.834;9.194;2022-12-18T12:11:08;3.60;29.80
3067;DHT22;1544;48.834;9.194;2022-12-18T12:14:29;3.60;29.80
3067;DHT22;1544;48.834;9.194;2022-12-18T12:20:22;3.50;29.70
3067;DHT22;1544;48.834;9.194;2022-12-18T12:29:44;3.60;30.20
3067;DHT22;1544;48.834;9.194;2022-12-18T12:35:47;3.70;30.00
3067;DHT22;1544;48.834;9.194;2022-12-18T12:38:49;3.70;30.40
3067;DHT22;1544;48.834;9.194;2022-12-18T12:41:31;3.70;30.40
3067;DHT22;1544;48.834;9.194;2022-12-18T12:44:29;3.80;30.20
3067;DHT22;1544;48.834;9.194;2022-12-18T12:47:21;3.70;29.70
3067;DHT22;1544;48.834;9.194;2022-12-18T12:50:03;3.70;30.00
3067;DHT22;1544;48.834;9.194;2022-12-18T12:52:47;3.70;30.20
3067;DHT22;1544;48.834;9.194;2022-12-18T12:55:27;3.70;29.80
3067;DHT22;1544;48.834;9.194;2022-12-18T13:13:07;3.80;30.10
3067;DHT22;1544;48.834;9.194;2022-12-18T13:15:46;3.80;30.10
3067;DHT22;1544;48.834;9.194;2022-12-18T13:18:23;3.80;30.10
3067;DHT22;1544;48.834;9.194;2022-12-18T13:23:37;3.90;30.00
3067;DHT22;1544;48.834;9.194;2022-12-18T13:28:52;4.00;29.70
3067;DHT22;1544;48.834;9.194;2022-12-18T13:37:40;4.10;30.20
3067;DHT22;1544;48.834;9.194;2022-12-18T13:40:53;4.20;30.20
3067;DHT22;1544;48.834;9.194;2022-12-18T13:43:38;4.10;29.70
3067;DHT22;1544;48.834;9.194;2022-12-18T13:51:59;4.00;29.90
3067;DHT22;1544;48.834;9.194;2022-12-18T13:54:39;4.00;30.00
3067;DHT22;1544;48.834;9.194;2022-12-18T13:57:31;4.00;30.00
3067;DHT22;1544;48.834;9.194;2022-12-18T14:03:20;5.30;31.00
3067;DHT22;1544;48.834;9.194;2022-12-18T14:06:07;3.90;30.20
3067;DHT22;1544;48.834;9.194;2022-12-18T14:08:43;3.80;30.20
3067;DHT22;1544;48.834;9.194;2022-12-18T14:11:21;3.80;30.00
3067;DHT22;1544;48.834;9.194;2022-12-18T14:14:01;3.70;29.90
3067;DHT22;1544;48.834;9.194;2022-12-18T14:16:36;3.60;29.90
3067;DHT22;1544;48.834;9.194;2022-12-18T14:19:14;3.50;30.00
3067;DHT22;1544;48.834;9.194;2022-12-18T14:21:50;3.40;30.20
3067;DHT22;1544;48.834;9.194;2022-12-18T14:24:25;3.30;30.00
3067;DHT22;1544;48.834;9.194;2022-12-18T14:27:23;3.20;29.80
3067;DHT22;1544;48.834;9.194;2022-12-18T14:29:59;3.10;29.90
3067;DHT22;1544;48.834;9.194;2022-12-18T14:32:34;3.00;30.00
3067;DHT22;1544;48.834;9.194;2022-12-18T14:35:13;2.80;30.00
3067;DHT22;1544;48.834;9.194;2022-12-18T14:37:48;2.70;30.10
3067;DHT22;1544;48.834;9.194;2022-12-18T14:40:23;2.60;30.30
3067;DHT22;1544;48.834;9.194;2022-12-18T14:42:58;2.50;30.50
3067;DHT22;1544;48.834;9.194;2022-12-18T14:45:36;2.40;30.20
3067;DHT22;1544;48.834;9.194;2022-12-18T14:48:25;2.30;30.30
3067;DHT22;1544;48.834;9.194;2022-12-18T14:51:15;2.20;30.70
3067;DHT22;1544;48.834;9.194;2022-12-18T14:53:58;2.10;30.90
3067;DHT22;1544;48.834;9.194;2022-12-18T14:56:48;2.00;31.20
3067;DHT22;1544;48.834;9.194;2022-12-18T14:59:26;1.90;31.50
3067;DHT22;1544;48.834;9.194;2022-12-18T15:02:19;1.90;31.90
3067;DHT22;1544;48.834;9.194;2022-12-18T15:07:56;1.70;32.40
3067;DHT22;1544;48.834;9.194;2022-12-18T15:10:34;1.60;32.30
3067;DHT22;1544;48.834;9.194;2022-12-18T15:13:20;1.50;32.20
3067;DHT22;1544;48.834;9.194;2022-12-18T15:16:00;0.70;31.60
3067;DHT22;1544;48.834;9.194;2022-12-18T15:18:41;1.40;32.10
3067;DHT22;1544;48.834;9.194;2022-12-18T15:21:19;1.20;31.60
3067;DHT22;1544;48.834;9.194;2022-12-18T15:23:54;1.20;32.00
3067;DHT22;1544;48.834;9.194;2022-12-18T15:26:36;1.10;32.00
3067;DHT22;1544;48.834;9.194;2022-12-18T15:29:19;1.00;31.90
3067;DHT22;1544;48.834;9.194;2022-12-18T15:32:05;0.90;32.10
3067;DHT22;1544;48.834;9.194;2022-12-18T15:34:45;0.80;32.20
3067;DHT22;1544;48.834;9.194;2022-12-18T15:37:20;0.80;32.40
3067;DHT22;1544;48.834;9.194;2022-12-18T15:39:55;0.70;32.60
3067;DHT22;1544;48.834;9.194;2022-12-18T15:42:30;0.70;32.50
3067;DHT22;1544;48.834;9.194;2022-12-18T15:45:24;0.60;32.70
3067;DHT22;1544;48.834;9.194;2022-12-18T15:47:59;0.50;33.00
3067;DHT22;1544;48.834;9.194;2022-12-18T15:50:34;0.50;33.30
3067;DHT22;1544;48.834;9.194;2022-12-18T15:53:09;0.40;33.70
3067;DHT22;1544;48.834;9.194;2022-12-18T15:55:44;0.40;34.10
3067;DHT22;1544;48.834;9.194;2022-12-18T15:58:38;0.30;34.00
3067;DHT22;1544;48.834;9.194;2022-12-18T16:01:15;0.30;34.00
3067;DHT22;1544;48.834;9.194;2022-12-18T16:03:54;0.20;33.90
3067;DHT22;1544;48.834;9.194;2022-12-18T16:06:29;0.10;34.00
3067;DHT22;1544;48.834;9.194;2022-12-18T16:09:24;0.00;33.90
3067;DHT22;1544;48.834;9.194;2022-12-18T16:12:00;0.00;34.20
3067;DHT22;1544;48.834;9.194;2022-12-18T16:14:35;0.00;34.30
3067;DHT22;1544;48.834;9.194;2022-12-18T16:17:11;0.00;34.60
3067;DHT22;1544;48.834;9.194;2022-12-18T16:19:47;-0.10;34.60
3067;DHT22;1544;48.834;9.194;2022-12-18T16:22:25;-0.10;34.50
3067;DHT22;1544;48.834;9.194;2022-12-18T16:25:03;-0.10;34.40
3067;DHT22;1544;48.834;9.194;2022-12-18T16:27:39;-0.10;34.40
3067;DHT22;1544;48.834;9.194;2022-12-18T16:30:16;-0.10;34.40
3067;DHT22;1544;48.834;9.194;2022-12-18T16:32:54;-0.20;34.40
3067;DHT22;1544;48.834;9.194;2022-12-18T16:35:29;-0.20;34.60
3067;DHT22;1544;48.834;9.194;2022-12-18T16:38:04;-0.20;34.50
3067;DHT22;1544;48.834;9.194;2022-12-18T16:40:39;-0.20;34.80
3067;DHT22;1544;48.834;9.194;2022-12-18T16:43:35;-0.20;34.90
3067;DHT22;1544;48.834;9.194;2022-12-18T16:46:10;-0.30;35.10
3067;DHT22;1544;48.834;9.194;2022-12-18T16:48:45;-0.20;35.20
3067;DHT22;1544;48.834;9.194;2022-12-18T16:51:20;-0.30;35.00
3067;DHT22;1544;48.834;9.194;2022-12-18T16:53:56;-0.30;35.10
3067;DHT22;1544;48.834;9.194;2022-12-18T16:56:31;-0.20;35.20
3067;DHT22;1544;48.834;9.194;2022-12-18T16:59:06;-0.20;35.10
3067;DHT22;1544;48.834;9.194;2022-12-18T17:01:43;-0.20;35.20
3067;DHT22;1544;48.834;9.194;2022-12-18T17:04:18;-0.20;35.00
3067;DHT22;1544;48.834;9.194;2022-12-18T17:06:53;-0.20;35.00
3067;DHT22;1544;48.834;9.194;2022-12-18T17:09:28;-0.20;34.90
3067;DHT22;1544;48.834;9.194;2022-12-18T17:12:03;-0.20;34.80
3067;DHT22;1544;48.834;9.194;2022-12-18T17:14:39;-0.20;34.60
3067;DHT22;1544;48.834;9.194;2022-12-18T17:17:14;-0.20;34.60
3067;DHT22;1544;48.834;9.194;2022-12-18T17:19:57;-0.20;34.60
3067;DHT22;1544;48.834;9.194;2022-12-18T17:22:32;-0.20;34.60
3067;DHT22;1544;48.834;9.194;2022-12-18T17:25:07;-0.10;34.60
3067;DHT22;1544;48.834;9.194;2022-12-18T17:27:42;-0.20;34.30
3067;DHT22;1544;48.834;9.194;2022-12-18T17:30:17;-0.20;34.30
3067;DHT22;1544;48.834;9.194;2022-12-18T17:32:53;-0.10;34.10
3067;DHT22;1544;48.834;9.194;2022-12-18T17:35:28;-0.20;34.00
3067;DHT22;1544;48.834;9.194;2022-12-18T17:38:04;-0.20;34.20
3067;DHT22;1544;48.834;9.194;2022-12-18T17:40:39;-0.20;34.20
3067;DHT22;1544;48.834;9.194;2022-12-18T17:43:20;-0.30;34.10
3067;DHT22;1544;48.834;9.194;2022-12-18T17:46:01;-0.20;34.10
3067;DHT22;1544;48.834;9.194;2022-12-18T17:48:37;-0.20;33.90
3067;DHT22;1544;48.834;9.194;2022-12-18T17:51:13;-0.20;33.90
3067;DHT22;1544;48.834;9.194;2022-12-18T17:53:49;-0.20;34.00
3067;DHT22;1544;48.834;9.194;2022-12-18T17:56:24;-0.30;34.00
3067;DHT22;1544;48.834;9.194;2022-12-18T17:59:00;-0.20;34.20
3067;DHT22;1544;48.834;9.194;2022-12-18T18:01:36;-0.30;34.10
3067;DHT22;1544;48.834;9.194;2022-12-18T18:04:18;-0.20;33.70
3067;DHT22;1544;48.834;9.194;2022-12-18T18:06:53;-0.20;34.00
3067;DHT22;1544;48.834;9.194;2022-12-18T18:09:28;-0.30;33.90
3067;DHT22;1544;48.834;9.194;2022-12-18T18:12:03;-0.20;33.70
3067;DHT22;1544;48.834;9.194;2022-12-18T18:14:57;-0.30;33.60
3067;DHT22;1544;48.834;9.194;2022-12-18T18:17:32;-0.30;33.80
3067;DHT22;1544;48.834;9.194;2022-12-18T18:20:08;-0.30;33.80
3067;DHT22;1544;48.834;9.194;2022-12-18T18:22:43;-0.30;33.80
3067;DHT22;1544;48.834;9.194;2022-12-18T18:25:18;-0.40;33.80
3067;DHT22;1544;48.834;9.194;2022-12-18T18:27:54;-0.40;34.00
3067;DHT22;1544;48.834;9.194;2022-12-18T18:30:29;-0.40;34.00
3067;DHT22;1544;48.834;9.194;2022-12-18T18:33:04;-0.50;33.90
3067;DHT22;1544;48.834;9.194;2022-12-18T18:35:45;-0.40;33.60
3067;DHT22;1544;48.834;9.194;2022-12-18T18:38:28;-0.40;33.70
3067;DHT22;1544;48.834;9.194;2022-12-18T18:41:04;-0.50;33.70
3067;DHT22;1544;48.834;9.194;2022-12-18T18:43:41;-0.50;33.70
3067;DHT22;1544;48.834;9.194;2022-12-18T18:46:16;-0.50;33.50
3067;DHT22;1544;48.834;9.194;2022-12-18T18:48:52;-0.50;33.60
3067;DHT22;1544;48.834;9.194;2022-12-18T18:51:28;-0.50;33.70
3067;DHT22;1544;48.834;9.194;2022-12-18T18:54:09;-0.50;33.80
3067;DHT22;1544;48.834;9.194;2022-12-18T18:56:44;-0.50;33.60
3067;DHT22;1544;48.834;9.194;2022-12-18T18:59:39;-0.50;33.70
3067;DHT22;1544;48.834;9.194;2022-12-18T19:02:15;-0.50;33.90
3067;DHT22;1544;48.834;9.194;2022-12-18T19:04:51;-0.40;33.90